Raybon, Georgia
Current Conditions -  °F | °C
As of 2:55 PM on Sunday 21 Dec 2014 (Local Time) from KAYS Reporting Station
Overcast Overcast  
Wind Chill: 55°   Ceiling: 400
Heat Index: 55°   Visibility: 7mi
Dew Point: 55°   Wind: 9mph
Humidity: 97%   Direction: 70°ENE
Pressure: 30.07"   Gusts: NA
Location:  31.1753°N, 81.969°W
Report Text: KAYS 211955Z AUTO 07008KT 7SM OVC004 13/13 A3007 RMK AO2 T01300125
Loading
Personal Weather Stations






























Interactive Weather Map New forecast layout! Learn more

10-Day Weather Forecast

Advertisements
Track Severe Weather on mobile